EXS9GL EGBB-LTBS
Flight info
| Callsign | EXS9GL |
|---|---|
| Flight time | 3h 51m |
| Altitude | 35000 |
| Route | COWLY Q70 BIG UL9 KONAN DCT KOK UL607 FERDI DCT REMBA DCT ARCKY DCT LIRSU DCT ULNOK DCT VIBOM DCT NOMBO DCT RIDAR DCT RADIZ/N0435F370 DCT EVAXI DCT ZARVE DCT TUPUS DCT MONID DCT NAVSU DCT EMKES DCT XELMI DCT ENFAR DCT TALAS UN130 TSL DCT GIKAS DCT RIKSO UP14 ODNOD UT491 SONUP |
| Aircraft | B738/M-SDE2E3FGHIRWXY/LB1 |
Departure
| Time | 2026-04-25 10:49 |
|---|---|
| Airport | Birmingham Airport (EGBB) |
Arrival
| Time | 2026-04-25 14:41 |
|---|---|
| Airport | Dalaman International Airport (LTBS) |
| Time | Latitude | Longitude | Altitude | Speed | Heading |
|---|---|---|---|---|---|
| 2026-04-25 10:11 | 52.44993 | -1.73430 | 319 ft | 0 kts | 326° |
| 2026-04-25 10:39 | 52.44987 | -1.73424 | 322 ft | 4 kts | 326° |
| 2026-04-25 10:39 | 52.44969 | -1.73403 | 321 ft | 4 kts | 312° |
| 2026-04-25 10:39 | 52.44961 | -1.73370 | 318 ft | 4 kts | 250° |
| 2026-04-25 10:39 | 52.44970 | -1.73341 | 320 ft | 1 kts | 236° |
| 2026-04-25 10:40 | 52.44958 | -1.73369 | 318 ft | 1 kts | 236° |
| 2026-04-25 10:40 | 52.44958 | -1.73370 | 318 ft | 0 kts | 236° |
| 2026-04-25 10:42 | 52.44951 | -1.73386 | 319 ft | 4 kts | 236° |
| 2026-04-25 10:42 | 52.44929 | -1.73441 | 322 ft | 8 kts | 236° |
| 2026-04-25 10:42 | 52.44898 | -1.73542 | 322 ft | 12 kts | 258° |
| 2026-04-25 10:42 | 52.44868 | -1.73628 | 322 ft | 2 kts | 234° |
| 2026-04-25 10:43 | 52.44866 | -1.73633 | 322 ft | 0 kts | 234° |
| 2026-04-25 10:43 | 52.44864 | -1.73647 | 322 ft | 4 kts | 257° |
| 2026-04-25 10:43 | 52.44889 | -1.73725 | 322 ft | 12 kts | 325° |
| 2026-04-25 10:43 | 52.44980 | -1.73827 | 322 ft | 19 kts | 326° |
| 2026-04-25 10:44 | 52.45111 | -1.73971 | 322 ft | 25 kts | 326° |
| 2026-04-25 10:44 | 52.45245 | -1.74120 | 322 ft | 23 kts | 326° |
| 2026-04-25 10:44 | 52.45373 | -1.74264 | 322 ft | 22 kts | 322° |
| 2026-04-25 10:44 | 52.45447 | -1.74480 | 321 ft | 21 kts | 297° |
| 2026-04-25 10:45 | 52.45545 | -1.74651 | 322 ft | 21 kts | 326° |
| 2026-04-25 10:45 | 52.45669 | -1.74786 | 313 ft | 21 kts | 327° |
| 2026-04-25 10:45 | 52.45789 | -1.74923 | 308 ft | 21 kts | 326° |
| 2026-04-25 10:45 | 52.45906 | -1.75053 | 308 ft | 20 kts | 326° |
| 2026-04-25 10:46 | 52.46020 | -1.75179 | 306 ft | 19 kts | 326° |
| 2026-04-25 10:46 | 52.46130 | -1.75302 | 305 ft | 19 kts | 326° |
| 2026-04-25 10:46 | 52.46236 | -1.75419 | 304 ft | 18 kts | 325° |
| 2026-04-25 10:46 | 52.46339 | -1.75534 | 302 ft | 18 kts | 326° |
| 2026-04-25 10:47 | 52.46439 | -1.75644 | 301 ft | 17 kts | 325° |
| 2026-04-25 10:47 | 52.46534 | -1.75753 | 303 ft | 16 kts | 326° |
| 2026-04-25 10:47 | 52.46623 | -1.75849 | 308 ft | 13 kts | 323° |
| 2026-04-25 10:47 | 52.46608 | -1.75980 | 307 ft | 13 kts | 237° |
| 2026-04-25 10:48 | 52.46551 | -1.76086 | 305 ft | 12 kts | 185° |
| 2026-04-25 10:48 | 52.46530 | -1.76072 | 307 ft | 0 kts | 148° |
| 2026-04-25 10:48 | 52.46428 | -1.75959 | 308 ft | 49 kts | 146° |
| 2026-04-25 10:49 | 52.45959 | -1.75438 | 315 ft | 113 kts | 146° |
| 2026-04-25 10:49 | 52.45444 | -1.74867 | 323 ft | 150 kts | 146° |
| 2026-04-25 10:49 | 52.44156 | -1.73437 | 868 ft | 173 kts | 146° |
| 2026-04-25 10:49 | 52.43168 | -1.72338 | 1680 ft | 174 kts | 146° |
| 2026-04-25 10:50 | 52.42087 | -1.71123 | 1999 ft | 203 kts | 146° |
| 2026-04-25 10:50 | 52.40812 | -1.69943 | 2370 ft | 217 kts | 163° |
| 2026-04-25 10:50 | 52.39323 | -1.69355 | 2933 ft | 222 kts | 166° |
| 2026-04-25 10:50 | 52.37822 | -1.68710 | 3685 ft | 225 kts | 160° |
| 2026-04-25 10:51 | 52.36328 | -1.67579 | 4005 ft | 251 kts | 153° |
| 2026-04-25 10:51 | 52.34774 | -1.66191 | 4552 ft | 263 kts | 148° |
| 2026-04-25 10:51 | 52.33221 | -1.64559 | 5302 ft | 267 kts | 147° |
| 2026-04-25 10:51 | 52.31653 | -1.62883 | 5931 ft | 271 kts | 148° |
| 2026-04-25 10:52 | 52.30059 | -1.61204 | 6696 ft | 274 kts | 148° |
| 2026-04-25 10:52 | 52.28444 | -1.59524 | 7415 ft | 277 kts | 148° |
| 2026-04-25 10:52 | 52.26797 | -1.57822 | 8072 ft | 283 kts | 148° |
| 2026-04-25 10:52 | 52.25111 | -1.56138 | 8815 ft | 285 kts | 152° |
| 2026-04-25 10:53 | 52.23329 | -1.54685 | 9537 ft | 288 kts | 155° |
| 2026-04-25 10:53 | 52.21506 | -1.53280 | 10233 ft | 292 kts | 155° |
| 2026-04-25 10:53 | 52.19635 | -1.51831 | 10620 ft | 308 kts | 155° |
| 2026-04-25 10:53 | 52.17633 | -1.50270 | 10774 ft | 329 kts | 155° |
| 2026-04-25 10:54 | 52.15525 | -1.48611 | 11204 ft | 341 kts | 155° |
| 2026-04-25 10:54 | 52.14105 | -1.47491 | 11620 ft | 344 kts | 155° |
| 2026-04-25 10:54 | 52.11211 | -1.45205 | 12601 ft | 346 kts | 155° |
| 2026-04-25 10:54 | 52.09039 | -1.43490 | 13335 ft | 349 kts | 155° |
| 2026-04-25 10:55 | 52.06845 | -1.41760 | 14066 ft | 352 kts | 155° |
| 2026-04-25 10:55 | 52.04631 | -1.40015 | 14726 ft | 356 kts | 155° |
| 2026-04-25 10:55 | 52.02396 | -1.38256 | 15402 ft | 359 kts | 155° |
| 2026-04-25 10:55 | 52.00137 | -1.36482 | 16083 ft | 362 kts | 155° |
| 2026-04-25 10:56 | 51.97946 | -1.34423 | 16736 ft | 367 kts | 144° |
| 2026-04-25 10:56 | 51.96080 | -1.31559 | 17405 ft | 372 kts | 130° |
| 2026-04-25 10:56 | 51.94536 | -1.28224 | 18066 ft | 376 kts | 127° |
| 2026-04-25 10:56 | 51.92989 | -1.24769 | 18645 ft | 381 kts | 127° |
| 2026-04-25 10:57 | 51.91428 | -1.21279 | 19183 ft | 385 kts | 127° |
| 2026-04-25 10:57 | 51.89845 | -1.17758 | 19729 ft | 388 kts | 128° |
| 2026-04-25 10:57 | 51.88242 | -1.14217 | 20283 ft | 392 kts | 128° |
| 2026-04-25 10:57 | 51.86618 | -1.10652 | 20828 ft | 395 kts | 128° |
| 2026-04-25 10:58 | 51.84976 | -1.07062 | 21360 ft | 399 kts | 128° |
| 2026-04-25 10:58 | 51.83315 | -1.03442 | 21886 ft | 402 kts | 129° |
| 2026-04-25 10:58 | 51.81636 | -0.99793 | 22382 ft | 406 kts | 129° |
| 2026-04-25 10:58 | 51.79943 | -0.96122 | 22886 ft | 410 kts | 129° |
| 2026-04-25 10:59 | 51.78225 | -0.92402 | 23307 ft | 416 kts | 129° |
| 2026-04-25 10:59 | 51.76484 | -0.88637 | 23775 ft | 420 kts | 129° |
| 2026-04-25 10:59 | 51.74732 | -0.84852 | 24220 ft | 422 kts | 129° |
| 2026-04-25 10:59 | 51.72991 | -0.81095 | 24667 ft | 424 kts | 129° |
| 2026-04-25 11:00 | 51.71221 | -0.77283 | 25093 ft | 426 kts | 129° |
| 2026-04-25 11:00 | 51.69427 | -0.73424 | 25501 ft | 429 kts | 129° |
| 2026-04-25 11:00 | 51.67632 | -0.69569 | 25896 ft | 432 kts | 129° |
| 2026-04-25 11:00 | 51.65821 | -0.65686 | 26296 ft | 434 kts | 129° |
| 2026-04-25 11:01 | 51.63999 | -0.61785 | 26702 ft | 437 kts | 129° |
| 2026-04-25 11:01 | 51.62164 | -0.57865 | 27089 ft | 439 kts | 129° |
| 2026-04-25 11:01 | 51.60322 | -0.53932 | 27471 ft | 442 kts | 130° |
| 2026-04-25 11:01 | 51.58481 | -0.50010 | 27850 ft | 444 kts | 130° |
| 2026-04-25 11:02 | 51.56588 | -0.45981 | 28195 ft | 447 kts | 130° |
| 2026-04-25 11:02 | 51.54709 | -0.41988 | 28570 ft | 449 kts | 130° |
| 2026-04-25 11:02 | 51.52822 | -0.37984 | 28926 ft | 451 kts | 130° |
| 2026-04-25 11:02 | 51.50921 | -0.33958 | 29271 ft | 453 kts | 130° |
| 2026-04-25 11:03 | 51.49034 | -0.29967 | 29588 ft | 456 kts | 130° |
| 2026-04-25 11:03 | 51.47111 | -0.25907 | 29918 ft | 458 kts | 130° |
| 2026-04-25 11:03 | 51.45176 | -0.21827 | 30241 ft | 460 kts | 130° |
| 2026-04-25 11:03 | 51.43230 | -0.17731 | 30506 ft | 462 kts | 130° |
| 2026-04-25 11:04 | 51.41280 | -0.13630 | 30780 ft | 464 kts | 130° |
| 2026-04-25 11:04 | 51.39324 | -0.09521 | 31059 ft | 465 kts | 130° |
| 2026-04-25 11:04 | 51.37359 | -0.05401 | 31404 ft | 464 kts | 130° |
| 2026-04-25 11:04 | 51.36040 | -0.02640 | 31674 ft | 462 kts | 130° |
| 2026-04-25 11:05 | 51.33759 | 0.03119 | 32163 ft | 466 kts | 118° |
| 2026-04-25 11:05 | 51.32532 | 0.07934 | 32435 ft | 470 kts | 110° |
| 2026-04-25 11:05 | 51.31988 | 0.11295 | 32618 ft | 472 kts | 103° |
| 2026-04-25 11:05 | 51.31391 | 0.16458 | 32992 ft | 471 kts | 102° |
| 2026-04-25 11:06 | 51.30827 | 0.21602 | 33386 ft | 469 kts | 102° |
| 2026-04-25 11:06 | 51.30229 | 0.26717 | 33749 ft | 468 kts | 103° |
| 2026-04-25 11:06 | 51.29596 | 0.31833 | 34088 ft | 467 kts | 103° |
| 2026-04-25 11:06 | 51.28964 | 0.36916 | 34388 ft | 466 kts | 103° |
| 2026-04-25 11:07 | 51.28345 | 0.42000 | 34677 ft | 465 kts | 103° |
| 2026-04-25 11:07 | 51.27735 | 0.47054 | 34967 ft | 464 kts | 103° |
| 2026-04-25 11:07 | 51.27121 | 0.52115 | 35215 ft | 463 kts | 103° |
| 2026-04-25 11:07 | 51.26511 | 0.57106 | 35444 ft | 464 kts | 103° |
| 2026-04-25 11:08 | 51.25871 | 0.62158 | 35704 ft | 463 kts | 103° |
| 2026-04-25 11:08 | 51.25205 | 0.67174 | 35980 ft | 461 kts | 104° |
| 2026-04-25 11:08 | 51.24536 | 0.72174 | 36249 ft | 460 kts | 103° |
| 2026-04-25 11:08 | 51.23892 | 0.77170 | 36497 ft | 460 kts | 103° |
| 2026-04-25 11:09 | 51.23264 | 0.82176 | 36740 ft | 459 kts | 103° |
| 2026-04-25 11:09 | 51.22642 | 0.87170 | 36982 ft | 458 kts | 103° |
| 2026-04-25 11:09 | 51.22018 | 0.92142 | 37208 ft | 457 kts | 103° |
| 2026-04-25 11:10 | 51.20741 | 1.02164 | 37237 ft | 462 kts | 103° |
| 2026-04-25 11:10 | 51.19436 | 1.12173 | 37226 ft | 459 kts | 103° |
| 2026-04-25 11:11 | 51.18135 | 1.22043 | 37238 ft | 456 kts | 103° |
| 2026-04-25 11:11 | 51.16830 | 1.31914 | 37233 ft | 454 kts | 103° |
| 2026-04-25 11:12 | 51.15869 | 1.41831 | 37239 ft | 453 kts | 95° |
| 2026-04-25 11:12 | 51.15450 | 1.51911 | 37241 ft | 459 kts | 94° |
| 2026-04-25 11:13 | 51.15024 | 1.62072 | 37241 ft | 465 kts | 95° |
| 2026-04-25 11:13 | 51.14526 | 1.72379 | 37231 ft | 467 kts | 95° |
| 2026-04-25 11:14 | 51.13999 | 1.82698 | 37224 ft | 468 kts | 95° |
| 2026-04-25 11:14 | 51.13465 | 1.93034 | 37229 ft | 468 kts | 95° |
| 2026-04-25 11:15 | 51.12924 | 2.03353 | 37239 ft | 467 kts | 95° |
| 2026-04-25 11:15 | 51.12375 | 2.13641 | 37231 ft | 466 kts | 95° |
| 2026-04-25 11:16 | 51.11544 | 2.28963 | 37230 ft | 464 kts | 95° |
| 2026-04-25 11:16 | 51.10979 | 2.39182 | 37229 ft | 463 kts | 95° |
| 2026-04-25 11:17 | 51.10406 | 2.49378 | 37230 ft | 462 kts | 95° |
| 2026-04-25 11:17 | 51.09826 | 2.59560 | 37229 ft | 461 kts | 95° |
| 2026-04-25 11:18 | 51.08853 | 2.69650 | 37226 ft | 461 kts | 106° |
| 2026-04-25 11:18 | 51.07038 | 2.79416 | 37229 ft | 461 kts | 108° |
| 2026-04-25 11:19 | 51.05186 | 2.89130 | 37238 ft | 462 kts | 107° |
| 2026-04-25 11:19 | 51.03360 | 2.98968 | 37239 ft | 463 kts | 107° |
| 2026-04-25 11:20 | 51.01552 | 3.08811 | 37232 ft | 465 kts | 107° |
| 2026-04-25 11:20 | 50.99731 | 3.18689 | 37224 ft | 466 kts | 107° |
| 2026-04-25 11:21 | 50.97898 | 3.28570 | 37214 ft | 467 kts | 107° |
| 2026-04-25 11:21 | 50.96050 | 3.38472 | 37214 ft | 468 kts | 106° |
| 2026-04-25 11:22 | 50.94506 | 3.46708 | 37207 ft | 469 kts | 107° |
| 2026-04-25 11:22 | 50.92326 | 3.58283 | 37203 ft | 469 kts | 107° |
| 2026-04-25 11:23 | 50.90461 | 3.68108 | 37207 ft | 468 kts | 107° |
| 2026-04-25 11:23 | 50.88561 | 3.78040 | 37222 ft | 468 kts | 107° |
| 2026-04-25 11:24 | 50.86676 | 3.87847 | 37216 ft | 468 kts | 107° |
| 2026-04-25 11:24 | 50.84777 | 3.97683 | 37214 ft | 467 kts | 107° |
| 2026-04-25 11:25 | 50.82871 | 4.07507 | 37218 ft | 466 kts | 107° |
| 2026-04-25 11:25 | 50.80962 | 4.17302 | 37216 ft | 466 kts | 107° |
| 2026-04-25 11:26 | 50.79047 | 4.27072 | 37209 ft | 465 kts | 107° |
| 2026-04-25 11:26 | 50.77125 | 4.36828 | 37208 ft | 464 kts | 107° |
| 2026-04-25 11:27 | 50.75211 | 4.46497 | 37207 ft | 464 kts | 107° |
| 2026-04-25 11:27 | 50.73592 | 4.54641 | 37219 ft | 464 kts | 107° |
| 2026-04-25 11:28 | 50.71334 | 4.65937 | 37210 ft | 464 kts | 107° |
| 2026-04-25 11:28 | 50.69383 | 4.75653 | 37210 ft | 464 kts | 107° |
| 2026-04-25 11:29 | 50.67422 | 4.85371 | 37207 ft | 465 kts | 107° |
| 2026-04-25 11:29 | 50.65316 | 4.94923 | 37195 ft | 465 kts | 113° |
| 2026-04-25 11:30 | 50.62613 | 5.04174 | 37204 ft | 465 kts | 116° |
| 2026-04-25 11:30 | 50.59822 | 5.13371 | 37212 ft | 466 kts | 115° |
| 2026-04-25 11:31 | 50.57062 | 5.22615 | 37198 ft | 467 kts | 115° |
| 2026-04-25 11:31 | 50.54322 | 5.31889 | 37188 ft | 467 kts | 115° |
| 2026-04-25 11:32 | 50.51583 | 5.41156 | 37180 ft | 467 kts | 115° |
| 2026-04-25 11:32 | 50.48834 | 5.50413 | 37181 ft | 467 kts | 115° |
| 2026-04-25 11:33 | 50.46092 | 5.59605 | 37185 ft | 467 kts | 115° |
| 2026-04-25 11:33 | 50.43323 | 5.68852 | 37177 ft | 467 kts | 115° |
| 2026-04-25 11:34 | 50.40550 | 5.78078 | 37166 ft | 467 kts | 115° |
| 2026-04-25 11:34 | 50.37774 | 5.87277 | 37165 ft | 467 kts | 115° |
| 2026-04-25 11:35 | 50.34993 | 5.96462 | 37153 ft | 466 kts | 115° |
| 2026-04-25 11:35 | 50.32209 | 6.05626 | 37142 ft | 466 kts | 115° |
| 2026-04-25 11:36 | 50.29413 | 6.14770 | 37131 ft | 466 kts | 116° |
| 2026-04-25 11:36 | 50.26335 | 6.23682 | 37140 ft | 466 kts | 119° |
| 2026-04-25 11:37 | 50.23172 | 6.32528 | 37131 ft | 465 kts | 118° |
| 2026-04-25 11:37 | 50.20086 | 6.41333 | 37123 ft | 465 kts | 118° |
| 2026-04-25 11:38 | 50.17685 | 6.50659 | 37129 ft | 463 kts | 103° |
| 2026-04-25 11:38 | 50.16139 | 6.60432 | 37137 ft | 464 kts | 102° |
| 2026-04-25 11:39 | 50.14597 | 6.70220 | 37137 ft | 464 kts | 103° |
| 2026-04-25 11:39 | 50.13015 | 6.79935 | 37146 ft | 464 kts | 103° |
| 2026-04-25 11:40 | 50.11398 | 6.89683 | 37154 ft | 465 kts | 103° |
| 2026-04-25 11:40 | 50.09766 | 6.99435 | 37172 ft | 465 kts | 103° |
| 2026-04-25 11:41 | 50.08125 | 7.09189 | 37168 ft | 466 kts | 103° |
| 2026-04-25 11:41 | 50.06476 | 7.18950 | 37157 ft | 466 kts | 103° |
| 2026-04-25 11:42 | 50.04816 | 7.28716 | 37152 ft | 467 kts | 103° |
| 2026-04-25 11:42 | 50.03082 | 7.38383 | 37147 ft | 468 kts | 110° |
| 2026-04-25 11:43 | 50.00173 | 7.47439 | 37146 ft | 468 kts | 118° |
| 2026-04-25 11:43 | 49.97044 | 7.56300 | 37140 ft | 468 kts | 118° |
| 2026-04-25 11:44 | 49.93938 | 7.65194 | 37122 ft | 468 kts | 118° |
| 2026-04-25 11:44 | 49.90870 | 7.74087 | 37140 ft | 467 kts | 117° |
| 2026-04-25 11:45 | 49.87810 | 7.82976 | 37135 ft | 467 kts | 117° |
| 2026-04-25 11:45 | 49.84764 | 7.91800 | 37130 ft | 466 kts | 117° |
| 2026-04-25 11:46 | 49.81694 | 8.00658 | 37130 ft | 466 kts | 117° |
| 2026-04-25 11:46 | 49.78616 | 8.09504 | 37132 ft | 466 kts | 118° |
| 2026-04-25 11:47 | 49.75527 | 8.18348 | 37127 ft | 466 kts | 118° |
| 2026-04-25 11:47 | 49.72442 | 8.27155 | 37120 ft | 466 kts | 118° |
| 2026-04-25 11:48 | 49.69350 | 8.35949 | 37120 ft | 466 kts | 118° |
| 2026-04-25 11:48 | 49.66252 | 8.44731 | 37126 ft | 466 kts | 118° |
| 2026-04-25 11:49 | 49.63168 | 8.53442 | 37126 ft | 465 kts | 118° |
| 2026-04-25 11:49 | 49.60059 | 8.62193 | 37126 ft | 465 kts | 118° |
| 2026-04-25 11:50 | 49.56946 | 8.70928 | 37118 ft | 465 kts | 118° |
| 2026-04-25 11:50 | 49.53826 | 8.79653 | 37133 ft | 465 kts | 118° |
| 2026-04-25 11:51 | 49.51226 | 8.86899 | 37112 ft | 465 kts | 118° |
| 2026-04-25 11:51 | 49.48093 | 8.95607 | 37129 ft | 465 kts | 118° |
| 2026-04-25 11:52 | 49.44956 | 9.04295 | 37103 ft | 465 kts | 119° |
| 2026-04-25 11:52 | 49.41810 | 9.12980 | 37104 ft | 465 kts | 119° |
| 2026-04-25 11:53 | 49.38659 | 9.21649 | 37106 ft | 465 kts | 119° |
| 2026-04-25 11:53 | 49.35500 | 9.30312 | 37110 ft | 464 kts | 119° |
| 2026-04-25 11:54 | 49.32335 | 9.38962 | 37104 ft | 465 kts | 119° |
| 2026-04-25 11:55 | 49.27595 | 9.51864 | 37107 ft | 465 kts | 119° |
| 2026-04-25 11:55 | 49.24413 | 9.60489 | 37114 ft | 465 kts | 119° |
| 2026-04-25 11:56 | 49.21221 | 9.69115 | 37124 ft | 466 kts | 120° |
| 2026-04-25 11:56 | 49.18023 | 9.77725 | 37137 ft | 466 kts | 120° |
| 2026-04-25 11:57 | 49.14811 | 9.86347 | 37128 ft | 467 kts | 120° |
| 2026-04-25 11:57 | 49.11593 | 9.94961 | 37132 ft | 467 kts | 120° |
| 2026-04-25 11:58 | 49.08365 | 10.03571 | 37115 ft | 467 kts | 120° |
| 2026-04-25 11:58 | 49.04685 | 10.11682 | 37136 ft | 464 kts | 135° |
| 2026-04-25 11:59 | 49.00092 | 10.18584 | 37129 ft | 463 kts | 137° |
| 2026-04-25 11:59 | 48.95478 | 10.25417 | 37133 ft | 462 kts | 137° |
| 2026-04-25 12:00 | 48.88630 | 10.35703 | 37133 ft | 460 kts | 136° |
| 2026-04-25 12:01 | 48.81853 | 10.45908 | 37143 ft | 459 kts | 137° |
| 2026-04-25 12:01 | 48.77317 | 10.52713 | 37144 ft | 457 kts | 137° |
| 2026-04-25 12:02 | 48.70522 | 10.62869 | 37135 ft | 456 kts | 137° |
| 2026-04-25 12:02 | 48.66001 | 10.69605 | 37121 ft | 455 kts | 137° |
| 2026-04-25 12:03 | 48.61484 | 10.76318 | 37126 ft | 455 kts | 138° |
| 2026-04-25 12:03 | 48.57110 | 10.83144 | 37116 ft | 456 kts | 132° |
| 2026-04-25 12:04 | 48.53104 | 10.90594 | 37102 ft | 457 kts | 131° |
| 2026-04-25 12:04 | 48.49144 | 10.98125 | 37099 ft | 458 kts | 131° |
| 2026-04-25 12:05 | 48.45142 | 11.05617 | 37099 ft | 459 kts | 132° |
| 2026-04-25 12:05 | 48.41109 | 11.13071 | 37105 ft | 460 kts | 132° |
| 2026-04-25 12:06 | 48.37053 | 11.20526 | 37106 ft | 461 kts | 132° |
| 2026-04-25 12:06 | 48.32981 | 11.27989 | 37104 ft | 462 kts | 133° |
| 2026-04-25 12:07 | 48.28917 | 11.35420 | 37104 ft | 463 kts | 133° |
| 2026-04-25 12:07 | 48.24812 | 11.42906 | 37104 ft | 465 kts | 133° |
| 2026-04-25 12:08 | 48.20700 | 11.50384 | 37106 ft | 465 kts | 133° |
| 2026-04-25 12:08 | 48.16571 | 11.57875 | 37111 ft | 465 kts | 133° |
| 2026-04-25 12:09 | 48.12435 | 11.65354 | 37092 ft | 466 kts | 133° |
| 2026-04-25 12:09 | 48.08297 | 11.72817 | 37099 ft | 466 kts | 133° |
| 2026-04-25 12:10 | 48.04179 | 11.80223 | 37082 ft | 466 kts | 133° |
| 2026-04-25 12:10 | 48.00033 | 11.87660 | 37094 ft | 465 kts | 133° |
| 2026-04-25 12:11 | 47.95889 | 11.95073 | 37085 ft | 465 kts | 133° |
| 2026-04-25 12:11 | 47.91731 | 12.02490 | 37089 ft | 465 kts | 133° |
| 2026-04-25 12:12 | 47.88281 | 12.08628 | 37095 ft | 465 kts | 133° |
| 2026-04-25 12:12 | 47.83421 | 12.17253 | 37095 ft | 465 kts | 133° |
| 2026-04-25 12:13 | 47.79258 | 12.24619 | 37086 ft | 465 kts | 133° |
| 2026-04-25 12:13 | 47.75092 | 12.31970 | 37070 ft | 464 kts | 134° |
| 2026-04-25 12:14 | 47.70929 | 12.39297 | 37072 ft | 463 kts | 134° |
| 2026-04-25 12:14 | 47.66766 | 12.46606 | 37077 ft | 463 kts | 134° |
| 2026-04-25 12:15 | 47.62570 | 12.53849 | 37080 ft | 462 kts | 138° |
| 2026-04-25 12:15 | 47.57714 | 12.59878 | 37080 ft | 457 kts | 146° |
| 2026-04-25 12:16 | 47.52682 | 12.65653 | 37070 ft | 457 kts | 146° |
| 2026-04-25 12:16 | 47.47692 | 12.71425 | 37102 ft | 454 kts | 146° |
| 2026-04-25 12:17 | 47.42720 | 12.77222 | 37083 ft | 456 kts | 146° |
| 2026-04-25 12:17 | 47.37731 | 12.83044 | 37080 ft | 458 kts | 146° |
| 2026-04-25 12:18 | 47.32723 | 12.88876 | 37069 ft | 460 kts | 146° |
| 2026-04-25 12:18 | 47.27688 | 12.94725 | 37060 ft | 460 kts | 146° |
| 2026-04-25 12:19 | 47.20165 | 13.03433 | 37042 ft | 461 kts | 146° |
| 2026-04-25 12:20 | 47.15131 | 13.09245 | 37033 ft | 458 kts | 146° |
| 2026-04-25 12:20 | 47.10129 | 13.15004 | 37061 ft | 455 kts | 146° |
| 2026-04-25 12:21 | 47.05128 | 13.20744 | 37063 ft | 457 kts | 146° |
| 2026-04-25 12:21 | 47.00138 | 13.26459 | 37026 ft | 458 kts | 146° |
| 2026-04-25 12:22 | 46.95103 | 13.32214 | 37040 ft | 460 kts | 146° |
| 2026-04-25 12:22 | 46.90072 | 13.37951 | 37035 ft | 458 kts | 146° |
| 2026-04-25 12:23 | 46.85034 | 13.43683 | 37032 ft | 458 kts | 146° |
| 2026-04-25 12:23 | 46.79997 | 13.49395 | 37027 ft | 459 kts | 146° |
| 2026-04-25 12:24 | 46.75261 | 13.55675 | 37027 ft | 464 kts | 135° |
| 2026-04-25 12:24 | 46.71028 | 13.62780 | 37041 ft | 464 kts | 134° |
| 2026-04-25 12:25 | 46.66808 | 13.69922 | 37029 ft | 465 kts | 134° |
| 2026-04-25 12:25 | 46.62542 | 13.77012 | 37032 ft | 465 kts | 135° |
| 2026-04-25 12:26 | 46.58278 | 13.84019 | 37019 ft | 465 kts | 135° |
| 2026-04-25 12:26 | 46.53979 | 13.91049 | 37024 ft | 465 kts | 135° |
| 2026-04-25 12:27 | 46.49679 | 13.98067 | 36997 ft | 464 kts | 135° |
| 2026-04-25 12:27 | 46.45396 | 14.05043 | 37034 ft | 462 kts | 135° |
| 2026-04-25 12:28 | 46.41116 | 14.11993 | 37026 ft | 463 kts | 135° |
| 2026-04-25 12:28 | 46.36824 | 14.18946 | 37019 ft | 463 kts | 135° |
| 2026-04-25 12:29 | 46.32523 | 14.25899 | 37020 ft | 463 kts | 135° |
| 2026-04-25 12:29 | 46.28217 | 14.32840 | 37024 ft | 464 kts | 135° |
| 2026-04-25 12:30 | 46.23905 | 14.39775 | 37020 ft | 463 kts | 135° |
| 2026-04-25 12:30 | 46.19591 | 14.46693 | 37020 ft | 463 kts | 135° |
| 2026-04-25 12:31 | 46.15306 | 14.53549 | 37027 ft | 462 kts | 135° |
| 2026-04-25 12:31 | 46.10990 | 14.60436 | 37019 ft | 462 kts | 135° |
| 2026-04-25 12:32 | 46.06681 | 14.67297 | 37019 ft | 462 kts | 135° |
| 2026-04-25 12:32 | 46.02364 | 14.74152 | 37009 ft | 462 kts | 135° |
| 2026-04-25 12:33 | 45.98042 | 14.80998 | 37001 ft | 461 kts | 135° |
| 2026-04-25 12:33 | 45.93726 | 14.87821 | 37001 ft | 461 kts | 135° |
| 2026-04-25 12:34 | 45.89416 | 14.94615 | 37014 ft | 460 kts | 135° |
| 2026-04-25 12:34 | 45.84991 | 15.01159 | 37011 ft | 459 kts | 138° |
| 2026-04-25 12:35 | 45.80419 | 15.07536 | 37006 ft | 458 kts | 139° |
| 2026-04-25 12:35 | 45.75856 | 15.13918 | 37014 ft | 458 kts | 138° |
| 2026-04-25 12:36 | 45.71315 | 15.20321 | 37015 ft | 458 kts | 138° |
| 2026-04-25 12:36 | 45.66780 | 15.26724 | 37014 ft | 458 kts | 138° |
| 2026-04-25 12:37 | 45.63005 | 15.32045 | 37014 ft | 458 kts | 138° |
| 2026-04-25 12:37 | 45.58458 | 15.38437 | 37014 ft | 458 kts | 138° |
| 2026-04-25 12:38 | 45.53906 | 15.44820 | 37018 ft | 459 kts | 138° |
| 2026-04-25 12:38 | 45.49345 | 15.51199 | 37014 ft | 459 kts | 138° |
| 2026-04-25 12:39 | 45.44814 | 15.57522 | 37015 ft | 458 kts | 138° |
| 2026-04-25 12:39 | 45.40250 | 15.63875 | 37015 ft | 458 kts | 138° |
| 2026-04-25 12:40 | 45.35683 | 15.70218 | 37016 ft | 458 kts | 138° |
| 2026-04-25 12:40 | 45.31117 | 15.76545 | 37018 ft | 458 kts | 138° |
| 2026-04-25 12:41 | 45.26556 | 15.82852 | 37011 ft | 458 kts | 138° |
| 2026-04-25 12:41 | 45.22021 | 15.89127 | 37023 ft | 457 kts | 136° |
| 2026-04-25 12:42 | 45.17805 | 15.95900 | 37022 ft | 458 kts | 132° |
| 2026-04-25 12:42 | 45.13698 | 16.02812 | 37013 ft | 458 kts | 132° |
| 2026-04-25 12:43 | 45.09565 | 16.09682 | 37015 ft | 458 kts | 132° |
| 2026-04-25 12:43 | 45.03325 | 16.19925 | 37012 ft | 458 kts | 133° |
| 2026-04-25 12:44 | 44.99151 | 16.26756 | 37004 ft | 458 kts | 132° |
| 2026-04-25 12:45 | 44.92685 | 16.36685 | 37011 ft | 457 kts | 136° |
| 2026-04-25 12:45 | 44.85947 | 16.46129 | 37009 ft | 456 kts | 136° |
| 2026-04-25 12:46 | 44.81466 | 16.52460 | 37008 ft | 456 kts | 136° |
| 2026-04-25 12:46 | 44.76994 | 16.58803 | 37013 ft | 456 kts | 136° |
| 2026-04-25 12:47 | 44.72522 | 16.65140 | 37028 ft | 456 kts | 136° |
| 2026-04-25 12:47 | 44.68054 | 16.71455 | 37018 ft | 455 kts | 136° |
| 2026-04-25 12:48 | 44.63583 | 16.77757 | 37025 ft | 455 kts | 136° |
| 2026-04-25 12:48 | 44.59117 | 16.84039 | 37039 ft | 455 kts | 136° |
| 2026-04-25 12:49 | 44.54665 | 16.90286 | 37023 ft | 455 kts | 136° |
| 2026-04-25 12:49 | 44.50095 | 16.96425 | 37035 ft | 454 kts | 138° |
| 2026-04-25 12:50 | 44.45480 | 17.02463 | 37028 ft | 454 kts | 138° |
| 2026-04-25 12:50 | 44.40874 | 17.08495 | 37026 ft | 453 kts | 137° |
| 2026-04-25 12:51 | 44.36274 | 17.14534 | 37027 ft | 453 kts | 137° |
| 2026-04-25 12:51 | 44.31705 | 17.20532 | 37027 ft | 453 kts | 137° |
| 2026-04-25 12:52 | 44.27080 | 17.26589 | 37039 ft | 453 kts | 137° |
| 2026-04-25 12:52 | 44.22519 | 17.32548 | 37048 ft | 452 kts | 137° |
| 2026-04-25 12:53 | 44.17922 | 17.38540 | 37045 ft | 452 kts | 137° |
| 2026-04-25 12:53 | 44.13315 | 17.44532 | 37047 ft | 453 kts | 137° |
| 2026-04-25 12:54 | 44.08709 | 17.50508 | 37043 ft | 453 kts | 137° |
| 2026-04-25 12:54 | 44.04095 | 17.56484 | 37043 ft | 453 kts | 137° |
| 2026-04-25 12:55 | 44.00251 | 17.61450 | 37028 ft | 453 kts | 137° |
| 2026-04-25 12:55 | 43.94854 | 17.68409 | 37049 ft | 453 kts | 137° |
| 2026-04-25 12:56 | 43.90253 | 17.74327 | 37036 ft | 452 kts | 137° |
| 2026-04-25 12:56 | 43.85630 | 17.80264 | 37042 ft | 452 kts | 137° |
| 2026-04-25 12:57 | 43.81015 | 17.86184 | 37043 ft | 452 kts | 136° |
| 2026-04-25 12:57 | 43.76508 | 17.92252 | 37023 ft | 452 kts | 135° |
| 2026-04-25 12:58 | 43.72073 | 17.98310 | 37037 ft | 451 kts | 135° |
| 2026-04-25 12:58 | 43.67588 | 18.04383 | 37041 ft | 451 kts | 135° |
| 2026-04-25 12:59 | 43.63092 | 18.10439 | 37049 ft | 450 kts | 135° |
| 2026-04-25 12:59 | 43.58607 | 18.16470 | 37043 ft | 450 kts | 135° |
| 2026-04-25 13:00 | 43.55646 | 18.20482 | 37031 ft | 450 kts | 135° |
| 2026-04-25 13:00 | 43.49697 | 18.28568 | 37052 ft | 448 kts | 134° |
| 2026-04-25 13:01 | 43.45278 | 18.34556 | 37048 ft | 448 kts | 135° |
| 2026-04-25 13:01 | 43.40830 | 18.40568 | 37044 ft | 448 kts | 135° |
| 2026-04-25 13:02 | 43.36373 | 18.46575 | 37038 ft | 448 kts | 134° |
| 2026-04-25 13:02 | 43.31910 | 18.52579 | 37045 ft | 448 kts | 134° |
| 2026-04-25 13:03 | 43.27451 | 18.58563 | 37032 ft | 448 kts | 134° |
| 2026-04-25 13:03 | 43.23020 | 18.64496 | 37046 ft | 448 kts | 134° |
| 2026-04-25 13:04 | 43.18557 | 18.70461 | 37040 ft | 448 kts | 134° |
| 2026-04-25 13:04 | 43.14086 | 18.76422 | 37042 ft | 449 kts | 135° |
| 2026-04-25 13:05 | 43.09596 | 18.82396 | 37019 ft | 450 kts | 134° |
| 2026-04-25 13:05 | 43.05105 | 18.88359 | 37029 ft | 450 kts | 134° |
| 2026-04-25 13:06 | 43.00607 | 18.94318 | 37036 ft | 450 kts | 134° |
| 2026-04-25 13:06 | 42.96093 | 19.00286 | 37020 ft | 451 kts | 134° |
| 2026-04-25 13:07 | 42.91608 | 19.06201 | 37015 ft | 451 kts | 134° |
| 2026-04-25 13:07 | 42.87091 | 19.12147 | 37020 ft | 450 kts | 134° |
| 2026-04-25 13:08 | 42.82584 | 19.18067 | 37002 ft | 450 kts | 134° |
| 2026-04-25 13:08 | 42.78079 | 19.23971 | 37018 ft | 449 kts | 134° |
| 2026-04-25 13:09 | 42.73581 | 19.29855 | 37014 ft | 448 kts | 134° |
| 2026-04-25 13:09 | 42.69103 | 19.35700 | 37003 ft | 448 kts | 134° |
| 2026-04-25 13:10 | 42.64609 | 19.41552 | 37001 ft | 447 kts | 134° |
| 2026-04-25 13:10 | 42.60121 | 19.47386 | 37019 ft | 446 kts | 134° |
| 2026-04-25 13:11 | 42.55625 | 19.53217 | 37012 ft | 446 kts | 134° |
| 2026-04-25 13:11 | 42.51158 | 19.58999 | 37008 ft | 446 kts | 134° |
| 2026-04-25 13:12 | 42.46660 | 19.64808 | 37005 ft | 446 kts | 134° |
| 2026-04-25 13:12 | 42.42917 | 19.69633 | 37024 ft | 446 kts | 134° |
| 2026-04-25 13:13 | 42.37651 | 19.76408 | 37026 ft | 446 kts | 134° |
| 2026-04-25 13:13 | 42.33144 | 19.82193 | 37022 ft | 447 kts | 134° |
| 2026-04-25 13:14 | 42.28648 | 19.87950 | 37030 ft | 445 kts | 134° |
| 2026-04-25 13:14 | 42.24185 | 19.93656 | 37025 ft | 445 kts | 134° |
| 2026-04-25 13:15 | 42.19693 | 19.99386 | 37026 ft | 444 kts | 134° |
| 2026-04-25 13:15 | 42.15203 | 20.05102 | 37023 ft | 444 kts | 134° |
| 2026-04-25 13:16 | 42.10713 | 20.10805 | 37022 ft | 443 kts | 134° |
| 2026-04-25 13:16 | 42.06215 | 20.16509 | 37030 ft | 444 kts | 134° |
| 2026-04-25 13:17 | 42.01715 | 20.22203 | 37024 ft | 444 kts | 134° |
| 2026-04-25 13:17 | 41.97232 | 20.27863 | 37021 ft | 443 kts | 134° |
| 2026-04-25 13:18 | 41.92729 | 20.33538 | 37011 ft | 443 kts | 134° |
| 2026-04-25 13:18 | 41.88238 | 20.39185 | 37029 ft | 442 kts | 134° |
| 2026-04-25 13:19 | 41.83745 | 20.44827 | 37020 ft | 442 kts | 134° |
| 2026-04-25 13:19 | 41.80770 | 20.48556 | 37032 ft | 441 kts | 134° |
| 2026-04-25 13:20 | 41.75234 | 20.56504 | 37038 ft | 434 kts | 120° |
| 2026-04-25 13:20 | 41.71964 | 20.63269 | 37032 ft | 432 kts | 119° |
| 2026-04-25 13:21 | 41.68701 | 20.70044 | 37024 ft | 433 kts | 120° |
| 2026-04-25 13:21 | 41.65404 | 20.76794 | 37008 ft | 434 kts | 120° |
| 2026-04-25 13:22 | 41.62082 | 20.83535 | 37031 ft | 434 kts | 120° |
| 2026-04-25 13:23 | 41.57099 | 20.93604 | 37015 ft | 435 kts | 120° |
| 2026-04-25 13:23 | 41.53749 | 21.00353 | 37012 ft | 436 kts | 120° |
| 2026-04-25 13:24 | 41.50399 | 21.07089 | 37016 ft | 435 kts | 120° |
| 2026-04-25 13:24 | 41.47613 | 21.12682 | 37012 ft | 435 kts | 120° |
| 2026-04-25 13:25 | 41.44252 | 21.19414 | 37024 ft | 436 kts | 120° |
| 2026-04-25 13:25 | 41.40887 | 21.26139 | 37028 ft | 436 kts | 120° |
| 2026-04-25 13:26 | 41.37522 | 21.32849 | 37032 ft | 435 kts | 120° |
| 2026-04-25 13:26 | 41.34162 | 21.39535 | 37019 ft | 434 kts | 120° |
| 2026-04-25 13:27 | 41.30830 | 21.46150 | 37027 ft | 432 kts | 120° |
| 2026-04-25 13:27 | 41.27485 | 21.52777 | 37029 ft | 431 kts | 120° |
| 2026-04-25 13:28 | 41.24143 | 21.59385 | 37037 ft | 430 kts | 120° |
| 2026-04-25 13:28 | 41.20808 | 21.65965 | 37041 ft | 429 kts | 120° |
| 2026-04-25 13:29 | 41.17487 | 21.72506 | 37029 ft | 429 kts | 120° |
| 2026-04-25 13:29 | 41.14142 | 21.79077 | 37040 ft | 429 kts | 120° |
| 2026-04-25 13:30 | 41.09119 | 21.88923 | 37047 ft | 430 kts | 120° |
| 2026-04-25 13:31 | 41.03857 | 21.98641 | 37040 ft | 433 kts | 123° |
| 2026-04-25 13:31 | 41.00203 | 22.04923 | 37040 ft | 433 kts | 123° |
| 2026-04-25 13:32 | 40.96545 | 22.11257 | 37030 ft | 433 kts | 123° |
| 2026-04-25 13:32 | 40.92902 | 22.17610 | 37035 ft | 433 kts | 123° |
| 2026-04-25 13:33 | 40.89267 | 22.23949 | 37019 ft | 433 kts | 123° |
| 2026-04-25 13:33 | 40.85632 | 22.30275 | 37030 ft | 432 kts | 123° |
| 2026-04-25 13:34 | 40.81994 | 22.36592 | 37028 ft | 431 kts | 123° |
| 2026-04-25 13:34 | 40.78355 | 22.42898 | 37030 ft | 431 kts | 123° |
| 2026-04-25 13:35 | 40.74737 | 22.49160 | 37033 ft | 432 kts | 123° |
| 2026-04-25 13:35 | 40.71096 | 22.55463 | 37022 ft | 431 kts | 123° |
| 2026-04-25 13:36 | 40.67453 | 22.61760 | 37022 ft | 431 kts | 123° |
| 2026-04-25 13:36 | 40.63816 | 22.68034 | 37023 ft | 431 kts | 123° |
| 2026-04-25 13:37 | 40.60173 | 22.74305 | 37023 ft | 431 kts | 123° |
| 2026-04-25 13:37 | 40.56529 | 22.80565 | 37030 ft | 431 kts | 123° |
| 2026-04-25 13:38 | 40.52883 | 22.86815 | 37019 ft | 431 kts | 123° |
| 2026-04-25 13:38 | 40.49235 | 22.93060 | 37025 ft | 430 kts | 123° |
| 2026-04-25 13:39 | 40.45604 | 22.99262 | 37020 ft | 431 kts | 123° |
| 2026-04-25 13:39 | 40.42036 | 23.05573 | 37024 ft | 430 kts | 122° |
| 2026-04-25 13:40 | 40.38519 | 23.11928 | 37031 ft | 430 kts | 122° |
| 2026-04-25 13:40 | 40.34995 | 23.18272 | 37022 ft | 430 kts | 122° |
| 2026-04-25 13:41 | 40.31453 | 23.24609 | 37035 ft | 431 kts | 122° |
| 2026-04-25 13:41 | 40.27904 | 23.30938 | 37030 ft | 431 kts | 122° |
| 2026-04-25 13:42 | 40.24348 | 23.37262 | 37031 ft | 431 kts | 122° |
| 2026-04-25 13:42 | 40.20787 | 23.43583 | 37045 ft | 431 kts | 123° |
| 2026-04-25 13:43 | 40.17246 | 23.49856 | 37034 ft | 432 kts | 123° |
| 2026-04-25 13:43 | 40.13672 | 23.56177 | 37027 ft | 432 kts | 123° |
| 2026-04-25 13:44 | 40.10096 | 23.62487 | 37030 ft | 432 kts | 123° |
| 2026-04-25 13:44 | 40.06518 | 23.68787 | 37026 ft | 432 kts | 123° |
| 2026-04-25 13:45 | 40.02935 | 23.75085 | 37035 ft | 432 kts | 123° |
| 2026-04-25 13:45 | 39.99351 | 23.81372 | 37018 ft | 432 kts | 124° |
| 2026-04-25 13:46 | 39.95756 | 23.87665 | 37017 ft | 432 kts | 124° |
| 2026-04-25 13:46 | 39.92162 | 23.93944 | 37029 ft | 432 kts | 124° |
| 2026-04-25 13:47 | 39.88567 | 24.00212 | 37032 ft | 432 kts | 124° |
| 2026-04-25 13:47 | 39.84969 | 24.06474 | 37017 ft | 432 kts | 124° |
| 2026-04-25 13:48 | 39.81368 | 24.12728 | 37024 ft | 432 kts | 124° |
| 2026-04-25 13:48 | 39.77779 | 24.18949 | 37024 ft | 432 kts | 124° |
| 2026-04-25 13:49 | 39.74166 | 24.25199 | 37026 ft | 433 kts | 124° |
| 2026-04-25 13:49 | 39.70539 | 24.31462 | 37022 ft | 433 kts | 124° |
| 2026-04-25 13:50 | 39.66909 | 24.37717 | 37025 ft | 434 kts | 124° |
| 2026-04-25 13:50 | 39.63296 | 24.43931 | 37020 ft | 434 kts | 124° |
| 2026-04-25 13:51 | 39.59649 | 24.50191 | 37025 ft | 435 kts | 124° |
| 2026-04-25 13:51 | 39.55994 | 24.56453 | 37019 ft | 435 kts | 124° |
| 2026-04-25 13:52 | 39.52323 | 24.62733 | 37020 ft | 436 kts | 125° |
| 2026-04-25 13:52 | 39.48953 | 24.69220 | 37008 ft | 433 kts | 114° |
| 2026-04-25 13:53 | 39.46397 | 24.76221 | 37015 ft | 432 kts | 112° |
| 2026-04-25 13:53 | 39.43861 | 24.83284 | 37006 ft | 433 kts | 112° |
| 2026-04-25 13:54 | 39.41290 | 24.90332 | 37004 ft | 433 kts | 113° |
| 2026-04-25 13:54 | 39.38697 | 24.97358 | 37005 ft | 433 kts | 113° |
| 2026-04-25 13:55 | 39.36093 | 25.04378 | 37011 ft | 432 kts | 113° |
| 2026-04-25 13:55 | 39.33504 | 25.11339 | 37004 ft | 432 kts | 114° |
| 2026-04-25 13:56 | 39.30897 | 25.18335 | 37000 ft | 432 kts | 114° |
| 2026-04-25 13:56 | 39.28287 | 25.25321 | 36999 ft | 431 kts | 114° |
| 2026-04-25 13:57 | 39.25677 | 25.32294 | 36997 ft | 431 kts | 114° |
| 2026-04-25 13:57 | 39.23064 | 25.39258 | 36994 ft | 431 kts | 114° |
| 2026-04-25 13:58 | 39.20468 | 25.46160 | 36991 ft | 430 kts | 114° |
| 2026-04-25 13:58 | 39.17856 | 25.53089 | 36990 ft | 430 kts | 114° |
| 2026-04-25 13:59 | 39.15235 | 25.60024 | 36991 ft | 429 kts | 114° |
| 2026-04-25 13:59 | 39.12618 | 25.66936 | 36988 ft | 429 kts | 114° |
| 2026-04-25 14:00 | 39.09999 | 25.73836 | 36985 ft | 429 kts | 114° |
| 2026-04-25 14:00 | 39.07374 | 25.80735 | 36987 ft | 429 kts | 114° |
| 2026-04-25 14:01 | 39.04748 | 25.87621 | 36987 ft | 429 kts | 114° |
| 2026-04-25 14:01 | 39.02131 | 25.94469 | 36980 ft | 429 kts | 114° |
| 2026-04-25 14:02 | 38.99494 | 26.01353 | 36977 ft | 429 kts | 115° |
| 2026-04-25 14:02 | 38.96852 | 26.08236 | 36978 ft | 429 kts | 115° |
| 2026-04-25 14:03 | 38.94205 | 26.15114 | 36970 ft | 430 kts | 115° |
| 2026-04-25 14:03 | 38.91550 | 26.22000 | 36979 ft | 430 kts | 115° |
| 2026-04-25 14:04 | 38.88889 | 26.28884 | 36980 ft | 431 kts | 115° |
| 2026-04-25 14:04 | 38.86224 | 26.35769 | 36977 ft | 431 kts | 115° |
| 2026-04-25 14:05 | 38.83645 | 26.42705 | 36966 ft | 431 kts | 109° |
| 2026-04-25 14:05 | 38.82350 | 26.50177 | 36989 ft | 429 kts | 97° |
| 2026-04-25 14:06 | 38.81492 | 26.57753 | 36973 ft | 430 kts | 98° |
| 2026-04-25 14:06 | 38.80602 | 26.65297 | 36976 ft | 431 kts | 98° |
| 2026-04-25 14:07 | 38.79666 | 26.72900 | 36975 ft | 432 kts | 98° |
| 2026-04-25 14:07 | 38.78718 | 26.80506 | 36965 ft | 433 kts | 98° |
| 2026-04-25 14:08 | 38.77765 | 26.88132 | 36960 ft | 433 kts | 98° |
| 2026-04-25 14:08 | 38.76439 | 26.95650 | 36963 ft | 434 kts | 111° |
| 2026-04-25 14:09 | 38.73463 | 27.02357 | 36960 ft | 435 kts | 126° |
| 2026-04-25 14:09 | 38.69803 | 27.08465 | 36958 ft | 435 kts | 128° |
| 2026-04-25 14:10 | 38.66110 | 27.14612 | 36958 ft | 436 kts | 127° |
| 2026-04-25 14:10 | 38.62440 | 27.20803 | 36953 ft | 437 kts | 128° |
| 2026-04-25 14:11 | 38.58775 | 27.27006 | 36964 ft | 437 kts | 128° |
| 2026-04-25 14:11 | 38.55096 | 27.33222 | 36954 ft | 438 kts | 128° |
| 2026-04-25 14:12 | 38.51460 | 27.39351 | 36924 ft | 425 kts | 128° |
| 2026-04-25 14:12 | 38.49697 | 27.42319 | 36934 ft | 412 kts | 128° |
| 2026-04-25 14:12 | 38.47990 | 27.45187 | 36925 ft | 400 kts | 128° |
| 2026-04-25 14:12 | 38.46334 | 27.47969 | 36866 ft | 389 kts | 129° |
| 2026-04-25 14:13 | 38.44687 | 27.50729 | 36111 ft | 396 kts | 128° |
| 2026-04-25 14:13 | 38.43563 | 27.52611 | 35348 ft | 409 kts | 128° |
| 2026-04-25 14:13 | 38.41813 | 27.55539 | 34645 ft | 416 kts | 128° |
| 2026-04-25 14:13 | 38.40062 | 27.58472 | 34311 ft | 412 kts | 128° |
| 2026-04-25 14:14 | 38.38340 | 27.61353 | 34073 ft | 405 kts | 128° |
| 2026-04-25 14:14 | 38.36642 | 27.64194 | 33747 ft | 401 kts | 128° |
| 2026-04-25 14:14 | 38.34960 | 27.67004 | 33321 ft | 398 kts | 128° |
| 2026-04-25 14:14 | 38.33284 | 27.69801 | 32987 ft | 394 kts | 128° |
| 2026-04-25 14:15 | 38.31626 | 27.72566 | 32665 ft | 391 kts | 128° |
| 2026-04-25 14:15 | 38.30538 | 27.74379 | 32459 ft | 388 kts | 128° |
| 2026-04-25 14:15 | 38.28355 | 27.78012 | 31975 ft | 384 kts | 128° |
| 2026-04-25 14:15 | 38.26665 | 27.80635 | 31594 ft | 382 kts | 134° |
| 2026-04-25 14:16 | 38.24678 | 27.82860 | 31189 ft | 380 kts | 144° |
| 2026-04-25 14:16 | 38.22526 | 27.84800 | 30812 ft | 378 kts | 144° |
| 2026-04-25 14:16 | 38.20395 | 27.86684 | 30431 ft | 377 kts | 145° |
| 2026-04-25 14:16 | 38.18240 | 27.88585 | 30033 ft | 376 kts | 144° |
| 2026-04-25 14:17 | 38.16101 | 27.90479 | 29669 ft | 372 kts | 144° |
| 2026-04-25 14:17 | 38.13982 | 27.92362 | 29119 ft | 374 kts | 144° |
| 2026-04-25 14:17 | 38.11859 | 27.94255 | 28715 ft | 371 kts | 144° |
| 2026-04-25 14:17 | 38.09754 | 27.96135 | 28305 ft | 368 kts | 144° |
| 2026-04-25 14:18 | 38.07675 | 27.97994 | 27963 ft | 364 kts | 144° |
| 2026-04-25 14:18 | 38.05616 | 27.99835 | 27597 ft | 360 kts | 144° |
| 2026-04-25 14:18 | 38.03579 | 28.01656 | 27243 ft | 357 kts | 144° |
| 2026-04-25 14:18 | 38.01555 | 28.03465 | 26875 ft | 355 kts | 144° |
| 2026-04-25 14:19 | 37.99542 | 28.05262 | 26522 ft | 352 kts | 144° |
| 2026-04-25 14:19 | 37.97546 | 28.07043 | 26180 ft | 350 kts | 144° |
| 2026-04-25 14:19 | 37.95553 | 28.08820 | 25824 ft | 348 kts | 144° |
| 2026-04-25 14:19 | 37.93597 | 28.10563 | 25501 ft | 348 kts | 144° |
| 2026-04-25 14:20 | 37.91586 | 28.12354 | 25156 ft | 349 kts | 144° |
| 2026-04-25 14:20 | 37.90269 | 28.13527 | 24927 ft | 350 kts | 144° |
| 2026-04-25 14:20 | 37.87626 | 28.15878 | 24441 ft | 350 kts | 144° |
| 2026-04-25 14:20 | 37.85636 | 28.17646 | 24106 ft | 349 kts | 144° |
| 2026-04-25 14:21 | 37.83656 | 28.19404 | 23755 ft | 347 kts | 144° |
| 2026-04-25 14:21 | 37.81681 | 28.21157 | 23390 ft | 345 kts | 144° |
| 2026-04-25 14:21 | 37.79790 | 28.22993 | 23078 ft | 340 kts | 139° |
| 2026-04-25 14:21 | 37.78034 | 28.24962 | 22798 ft | 335 kts | 137° |
| 2026-04-25 14:22 | 37.76336 | 28.26951 | 22480 ft | 331 kts | 136° |
| 2026-04-25 14:22 | 37.74658 | 28.28928 | 22125 ft | 329 kts | 136° |
| 2026-04-25 14:22 | 37.72982 | 28.30893 | 21757 ft | 328 kts | 137° |
| 2026-04-25 14:22 | 37.71308 | 28.32842 | 21405 ft | 326 kts | 137° |
| 2026-04-25 14:23 | 37.69640 | 28.34772 | 21064 ft | 324 kts | 137° |
| 2026-04-25 14:23 | 37.67975 | 28.36689 | 20720 ft | 323 kts | 137° |
| 2026-04-25 14:23 | 37.66318 | 28.38591 | 20387 ft | 320 kts | 138° |
| 2026-04-25 14:23 | 37.64691 | 28.40454 | 20067 ft | 318 kts | 138° |
| 2026-04-25 14:24 | 37.63055 | 28.42325 | 19726 ft | 317 kts | 138° |
| 2026-04-25 14:24 | 37.61421 | 28.44191 | 19380 ft | 316 kts | 138° |
| 2026-04-25 14:24 | 37.59792 | 28.46049 | 19048 ft | 315 kts | 138° |
| 2026-04-25 14:24 | 37.58170 | 28.47898 | 18734 ft | 313 kts | 138° |
| 2026-04-25 14:25 | 37.56556 | 28.49736 | 18428 ft | 312 kts | 138° |
| 2026-04-25 14:25 | 37.54950 | 28.51564 | 18093 ft | 310 kts | 138° |
| 2026-04-25 14:25 | 37.53350 | 28.53385 | 17742 ft | 309 kts | 138° |
| 2026-04-25 14:25 | 37.52295 | 28.54585 | 17487 ft | 309 kts | 138° |
| 2026-04-25 14:26 | 37.50148 | 28.57024 | 16944 ft | 309 kts | 138° |
| 2026-04-25 14:26 | 37.48574 | 28.58812 | 16623 ft | 308 kts | 138° |
| 2026-04-25 14:26 | 37.46988 | 28.60612 | 16307 ft | 306 kts | 138° |
| 2026-04-25 14:26 | 37.45411 | 28.62400 | 15995 ft | 304 kts | 138° |
| 2026-04-25 14:27 | 37.43845 | 28.64176 | 15681 ft | 302 kts | 138° |
| 2026-04-25 14:27 | 37.42292 | 28.65935 | 15373 ft | 299 kts | 139° |
| 2026-04-25 14:27 | 37.40752 | 28.67678 | 15073 ft | 297 kts | 139° |
| 2026-04-25 14:27 | 37.39218 | 28.69414 | 14771 ft | 295 kts | 139° |
| 2026-04-25 14:28 | 37.37696 | 28.71136 | 14473 ft | 294 kts | 139° |
| 2026-04-25 14:28 | 37.36178 | 28.72851 | 14180 ft | 293 kts | 139° |
| 2026-04-25 14:28 | 37.34665 | 28.74560 | 13879 ft | 291 kts | 139° |
| 2026-04-25 14:28 | 37.33160 | 28.76259 | 13555 ft | 290 kts | 139° |
| 2026-04-25 14:29 | 37.31662 | 28.77949 | 13239 ft | 288 kts | 139° |
| 2026-04-25 14:29 | 37.30174 | 28.79628 | 12933 ft | 286 kts | 140° |
| 2026-04-25 14:29 | 37.28697 | 28.81292 | 12626 ft | 284 kts | 140° |
| 2026-04-25 14:29 | 37.27229 | 28.82946 | 12335 ft | 283 kts | 140° |
| 2026-04-25 14:30 | 37.25775 | 28.84583 | 12084 ft | 280 kts | 140° |
| 2026-04-25 14:30 | 37.22884 | 28.87836 | 11505 ft | 277 kts | 140° |
| 2026-04-25 14:30 | 37.21468 | 28.89428 | 11219 ft | 275 kts | 140° |
| 2026-04-25 14:31 | 37.20050 | 28.91020 | 10932 ft | 273 kts | 140° |
| 2026-04-25 14:31 | 37.18642 | 28.92603 | 10658 ft | 271 kts | 140° |
| 2026-04-25 14:31 | 37.17244 | 28.94171 | 10367 ft | 269 kts | 140° |
| 2026-04-25 14:31 | 37.15853 | 28.95732 | 10117 ft | 265 kts | 141° |
| 2026-04-25 14:32 | 37.14498 | 28.97252 | 10009 ft | 259 kts | 141° |
| 2026-04-25 14:32 | 37.13155 | 28.98758 | 9714 ft | 260 kts | 141° |
| 2026-04-25 14:32 | 37.11808 | 29.00266 | 9429 ft | 260 kts | 141° |
| 2026-04-25 14:32 | 37.10475 | 29.01758 | 9317 ft | 253 kts | 141° |
| 2026-04-25 14:33 | 37.09172 | 29.03215 | 9195 ft | 248 kts | 141° |
| 2026-04-25 14:33 | 37.07897 | 29.04628 | 9089 ft | 242 kts | 144° |
| 2026-04-25 14:33 | 37.06415 | 29.05452 | 8953 ft | 230 kts | 173° |
| 2026-04-25 14:33 | 37.04818 | 29.05317 | 8689 ft | 230 kts | 194° |
| 2026-04-25 14:34 | 37.03300 | 29.04485 | 8114 ft | 247 kts | 211° |
| 2026-04-25 14:34 | 37.01815 | 29.03344 | 7618 ft | 253 kts | 210° |
| 2026-04-25 14:34 | 37.00315 | 29.02215 | 7107 ft | 258 kts | 210° |
| 2026-04-25 14:34 | 36.98757 | 29.01057 | 6597 ft | 262 kts | 209° |
| 2026-04-25 14:35 | 36.97189 | 28.99895 | 6203 ft | 260 kts | 209° |
| 2026-04-25 14:35 | 36.95653 | 28.98764 | 5855 ft | 251 kts | 209° |
| 2026-04-25 14:35 | 36.94177 | 28.97680 | 5480 ft | 242 kts | 210° |
| 2026-04-25 14:35 | 36.92848 | 28.96449 | 5146 ft | 233 kts | 220° |
| 2026-04-25 14:36 | 36.91652 | 28.95140 | 4829 ft | 224 kts | 220° |
| 2026-04-25 14:36 | 36.90503 | 28.93882 | 4550 ft | 215 kts | 220° |
| 2026-04-25 14:36 | 36.89396 | 28.92686 | 4268 ft | 207 kts | 220° |
| 2026-04-25 14:36 | 36.88310 | 28.91526 | 3984 ft | 203 kts | 220° |
| 2026-04-25 14:37 | 36.87240 | 28.90387 | 3707 ft | 201 kts | 221° |
| 2026-04-25 14:37 | 36.86181 | 28.89262 | 3461 ft | 199 kts | 221° |
| 2026-04-25 14:37 | 36.85073 | 28.88213 | 3145 ft | 201 kts | 212° |
| 2026-04-25 14:37 | 36.83877 | 28.87347 | 2862 ft | 196 kts | 211° |
| 2026-04-25 14:38 | 36.82718 | 28.86521 | 2565 ft | 188 kts | 211° |
| 2026-04-25 14:38 | 36.81595 | 28.85727 | 2272 ft | 183 kts | 212° |
| 2026-04-25 14:38 | 36.80518 | 28.84954 | 2025 ft | 170 kts | 212° |
| 2026-04-25 14:38 | 36.79495 | 28.84214 | 1748 ft | 172 kts | 211° |
| 2026-04-25 14:39 | 36.78501 | 28.83479 | 1465 ft | 162 kts | 216° |
| 2026-04-25 14:39 | 36.77659 | 28.82572 | 1248 ft | 158 kts | 230° |
| 2026-04-25 14:39 | 36.76976 | 28.81525 | 1027 ft | 154 kts | 230° |
| 2026-04-25 14:39 | 36.76120 | 28.80800 | 821 ft | 148 kts | 195° |
| 2026-04-25 14:40 | 36.75120 | 28.80525 | 609 ft | 146 kts | 193° |
| 2026-04-25 14:40 | 36.74137 | 28.80210 | 385 ft | 145 kts | 195° |
| 2026-04-25 14:40 | 36.73184 | 28.79882 | 197 ft | 139 kts | 195° |
| 2026-04-25 14:40 | 36.72261 | 28.79573 | 18 ft | 133 kts | 195° |
| 2026-04-25 14:41 | 36.71508 | 28.79317 | 11 ft | 83 kts | 195° |
| 2026-04-25 14:41 | 36.71144 | 28.79193 | 12 ft | 35 kts | 194° |
| 2026-04-25 14:41 | 36.70957 | 28.79130 | 12 ft | 25 kts | 196° |
| 2026-04-25 14:41 | 36.70796 | 28.79075 | 12 ft | 23 kts | 194° |
| 2026-04-25 14:42 | 36.70662 | 28.78976 | 13 ft | 22 kts | 219° |
| 2026-04-25 14:42 | 36.70624 | 28.78935 | 12 ft | 22 kts | 221° |
| 2026-04-25 14:42 | 36.70659 | 28.78815 | 12 ft | 15 kts | 13° |
| 2026-04-25 14:42 | 36.70759 | 28.78848 | 12 ft | 15 kts | 15° |
| 2026-04-25 14:43 | 36.70856 | 28.78882 | 12 ft | 14 kts | 15° |
| 2026-04-25 14:43 | 36.70950 | 28.78914 | 12 ft | 14 kts | 15° |
| 2026-04-25 14:43 | 36.71039 | 28.78943 | 12 ft | 13 kts | 15° |
| 2026-04-25 14:43 | 36.71125 | 28.78973 | 12 ft | 13 kts | 15° |
| 2026-04-25 14:44 | 36.71209 | 28.79002 | 12 ft | 12 kts | 15° |
| 2026-04-25 14:44 | 36.71290 | 28.79030 | 12 ft | 12 kts | 16° |
| 2026-04-25 14:44 | 36.71370 | 28.79058 | 12 ft | 12 kts | 14° |
| 2026-04-25 14:44 | 36.71451 | 28.79084 | 12 ft | 13 kts | 15° |
| 2026-04-25 14:45 | 36.71511 | 28.79104 | 11 ft | 14 kts | 15° |
| 2026-04-25 14:45 | 36.71656 | 28.79154 | 11 ft | 18 kts | 15° |
| 2026-04-25 14:45 | 36.71778 | 28.79195 | 11 ft | 19 kts | 15° |
| 2026-04-25 14:45 | 36.71877 | 28.79156 | 12 ft | 17 kts | 285° |
| 2026-04-25 14:46 | 36.71918 | 28.79029 | 11 ft | 15 kts | 336° |
| 2026-04-25 14:46 | 36.72001 | 28.79051 | 11 ft | 12 kts | 15° |
| 2026-04-25 14:46 | 36.72078 | 28.79077 | 11 ft | 11 kts | 15° |
| 2026-04-25 14:46 | 36.72131 | 28.79085 | 11 ft | 6 kts | 338° |
| 2026-04-25 14:47 | 36.72143 | 28.79049 | 11 ft | 4 kts | 284° |
| 2026-04-25 14:47 | 36.72145 | 28.79037 | 11 ft | 4 kts | 284° |
| 2026-04-25 14:47 | 36.72149 | 28.79021 | 11 ft | 0 kts | 285° |